Time;durP1;ratioP1;P1;durP2;ratioP2;P2;SDS_P1;SDS_P2;PMS_P1;PMS_P2;Temp;Humidity;BMP_temperature;BMP_pressure;BME280_temperature;BME280_humidity;BME280_pressure;Samples;Min_cycle;Max_cycle;Signal;HPM_P1;HPM_P2
2022/05/23 00:00:42;;;;;;;0.63;0.63;;;;;;;14.07;51.06;100938.38;4984907;28;96964;-85
2022/05/23 00:03:07;;;;;;;0.80;0.80;;;;;;;14.06;51.01;100933.38;4985893;28;96961;-85
2022/05/23 00:05:32;;;;;;;1.53;0.97;;;;;;;14.00;51.22;100946.47;4984230;28;97010;-85
2022/05/23 00:07:59;;;;;;;1.00;0.73;;;;;;;13.98;51.41;100938.69;4990038;28;96985;-84
2022/05/23 00:10:24;;;;;;;0.70;0.53;;;;;;;13.99;51.41;100925.59;5009274;28;97000;-85
2022/05/23 00:12:50;;;;;;;0.70;0.70;;;;;;;13.95;51.40;100917.59;4988455;28;97446;-84
2022/05/23 00:15:15;;;;;;;0.63;0.63;;;;;;;13.93;51.33;100919.34;4983346;28;96968;-85
2022/05/23 00:17:41;;;;;;;0.90;0.60;;;;;;;13.90;51.35;100915.59;4987782;28;97375;-85
2022/05/23 00:20:09;;;;;;;0.93;0.70;;;;;;;13.89;51.47;100913.34;4985796;28;96929;-85
2022/05/23 00:22:35;;;;;;;1.03;0.60;;;;;;;13.86;51.62;100917.09;4981257;28;96947;-85
2022/05/23 00:25:00;;;;;;;1.60;0.60;;;;;;;13.85;51.68;100908.03;5000486;28;97021;-84
2022/05/23 00:27:25;;;;;;;1.47;0.80;;;;;;;13.83;51.73;100910.56;4984437;28;97565;-85
2022/05/23 00:29:51;;;;;;;1.03;0.93;;;;;;;13.82;51.74;100902.78;4999752;28;97059;-87
2022/05/23 00:35:17;;;;;;;1.00;0.50;;;;;;;13.79;51.80;100903.78;4999872;28;100874;-85
2022/05/23 00:37:44;;;;;;;0.83;0.80;;;;;;;13.77;52.00;100895.25;4984898;28;97885;-85
2022/05/23 00:40:20;;;;;;;0.90;0.60;;;;;;;13.77;52.41;100898.03;4986079;28;97002;-84
2022/05/23 00:45:29;;;;;;;0.67;0.67;;;;;;;13.71;51.92;100902.81;4999396;28;100841;-85
2022/05/23 00:47:55;;;;;;;0.50;0.50;;;;;;;13.68;52.01;100901.06;4987239;28;96976;-85
2022/05/23 00:50:20;;;;;;;2.80;1.10;;;;;;;13.66;52.10;100884.22;5005173;28;99681;-85
2022/05/23 00:52:52;;;;;;;0.73;0.70;;;;;;;13.68;52.71;100887.25;5004411;28;98813;-86
2022/05/23 00:55:23;;;;;;;1.60;1.00;;;;;;;13.70;52.16;100887.47;5000372;28;97285;-85
2022/05/23 00:57:55;;;;;;;0.70;0.70;;;;;;;13.70;52.35;100881.94;4981502;28;96852;-85
2022/05/23 01:00:20;;;;;;;1.70;1.10;;;;;;;13.68;52.11;100884.47;4980699;28;96832;-84
2022/05/23 01:02:51;;;;;;;0.77;0.77;;;;;;;13.68;52.22;100881.72;4981912;28;102241;-85
2022/05/23 01:05:17;;;;;;;0.83;0.83;;;;;;;13.69;52.22;100878.47;5003875;28;97402;-84
2022/05/23 01:07:43;;;;;;;0.70;0.60;;;;;;;13.72;52.39;100876.66;5000955;28;97263;-85
2022/05/23 01:10:09;;;;;;;1.53;0.70;;;;;;;13.71;52.40;100866.88;4987074;28;96961;-85
2022/05/23 01:12:35;;;;;;;2.20;0.70;;;;;;;13.73;52.22;100865.13;4979533;28;99755;-84
2022/05/23 01:15:03;;;;;;;0.73;0.73;;;;;;;13.74;52.30;100869.38;4987797;28;99741;-84
2022/05/23 01:17:29;;;;;;;0.70;0.53;;;;;;;13.74;52.28;100865.88;5002379;28;96754;-85
2022/05/23 01:19:54;;;;;;;1.23;1.07;;;;;;;13.74;52.37;100874.16;5004212;28;96934;-85
2022/05/23 01:22:25;;;;;;;0.90;0.90;;;;;;;13.77;52.51;100862.84;4997331;28;97566;-85
2022/05/23 01:25:06;;;;;;;1.50;0.93;;;;;;;13.78;52.49;100850.50;4995686;28;102133;-84
2022/05/23 01:27:32;;;;;;;1.33;0.57;;;;;;;13.77;52.39;100851.78;4989424;28;96749;-85
2022/05/23 01:29:57;;;;;;;1.37;1.10;;;;;;;13.78;52.49;100849.78;4980478;28;96992;-85
2022/05/23 01:32:23;;;;;;;0.70;0.50;;;;;;;13.78;52.49;100844.25;4987250;28;99669;-85
2022/05/23 01:34:48;;;;;;;0.93;0.70;;;;;;;13.75;52.51;100848.78;4990667;28;96821;-85
2022/05/23 01:37:15;;;;;;;0.77;0.67;;;;;;;13.80;52.65;100842.47;4984671;28;97263;-84
2022/05/23 01:39:40;;;;;;;1.77;0.70;;;;;;;13.83;52.58;100848.97;4979592;28;96933;-84
2022/05/23 01:42:06;;;;;;;2.40;1.00;;;;;;;13.84;52.49;100845.72;4999615;28;98795;-84
2022/05/23 01:44:32;;;;;;;1.63;1.20;;;;;;;13.85;52.23;100849.22;4983708;28;97166;-84
2022/05/23 01:46:58;;;;;;;0.80;0.80;;;;;;;13.81;52.59;100845.97;4981029;28;96590;-84
2022/05/23 01:49:23;;;;;;;0.80;0.80;;;;;;;13.85;52.79;100827.09;5004579;28;97027;-84
2022/05/23 01:51:49;;;;;;;1.00;1.00;;;;;;;13.83;52.59;100826.84;4995472;28;97052;-84
2022/05/23 01:54:14;;;;;;;0.90;0.80;;;;;;;13.85;52.67;100838.16;5001365;28;98350;-84
2022/05/23 01:56:40;;;;;;;1.00;0.60;;;;;;;13.81;52.62;100815.53;4986088;28;97278;-85
2022/05/23 02:01:49;;;;;;;3.47;0.83;;;;;;;13.81;52.86;100810.78;5000727;28;101638;-84
2022/05/23 02:04:14;;;;;;;3.60;0.70;;;;;;;13.80;52.74;100812.06;4984275;28;97994;-84
2022/05/23 02:06:40;;;;;;;1.13;0.70;;;;;;;13.81;52.65;100812.78;4972522;28;96877;-84
2022/05/23 02:09:05;;;;;;;1.00;0.90;;;;;;;13.82;52.88;100815.06;4996893;28;97335;-84
2022/05/23 02:11:31;;;;;;;0.90;0.73;;;;;;;13.81;52.89;100812.78;4979881;28;99812;-84
2022/05/23 02:13:56;;;;;;;1.60;0.80;;;;;;;13.83;52.99;100819.31;5005430;28;97054;-85
2022/05/23 02:16:23;;;;;;;1.53;0.80;;;;;;;13.78;53.03;100827.66;5005174;28;97018;-84
2022/05/23 02:18:49;;;;;;;1.10;0.70;;;;;;;13.84;52.78;100798.69;4994294;28;96943;-84
2022/05/23 02:21:16;;;;;;;1.37;1.00;;;;;;;13.82;52.86;100800.47;5004108;28;96851;-84
2022/05/23 02:23:42;;;;;;;2.00;0.80;;;;;;;13.81;52.82;100791.41;5000977;28;97223;-83
2022/05/23 02:26:09;;;;;;;0.90;0.53;;;;;;;13.79;52.66;100793.19;4982291;28;96953;-84
2022/05/23 02:28:35;;;;;;;0.83;0.73;;;;;;;13.74;52.79;100788.44;4997225;28;97227;-84
2022/05/23 02:31:00;;;;;;;0.70;0.70;;;;;;;13.61;53.17;100782.75;4986947;28;97173;-84
2022/05/23 02:33:25;;;;;;;0.60;0.60;;;;;;;13.65;53.17;100785.97;5004720;28;96941;-84
2022/05/23 02:35:51;;;;;;;1.90;0.80;;;;;;;13.61;53.19;100799.31;4993289;28;96900;-86
2022/05/23 02:38:16;;;;;;;1.93;0.83;;;;;;;13.58;53.26;100789.28;5004040;28;96817;-86
2022/05/23 02:40:42;;;;;;;1.10;0.80;;;;;;;13.59;53.11;100793.53;5002743;28;99793;-84
2022/05/23 02:43:07;;;;;;;0.60;0.50;;;;;;;13.52;53.39;100767.94;4983913;28;97689;-86
2022/05/23 02:45:33;;;;;;;0.60;0.60;;;;;;;13.52;53.48;100767.16;4987009;28;96540;-86
2022/05/23 02:47:58;;;;;;;0.73;0.73;;;;;;;13.44;53.53;100775.25;4984672;28;97133;-86
2022/05/23 02:50:24;;;;;;;1.20;0.60;;;;;;;13.46;53.54;100772.72;4986553;28;98531;-85
2022/05/23 02:52:49;;;;;;;0.50;0.50;;;;;;;13.46;53.64;100766.44;4994160;28;96948;-85
2022/05/23 02:55:15;;;;;;;0.60;0.60;;;;;;;13.47;53.59;100779.03;4984689;28;97109;-85
2022/05/23 02:57:40;;;;;;;1.77;0.90;;;;;;;13.46;53.62;100772.72;5004047;28;96969;-85
2022/05/23 03:00:09;;;;;;;3.63;0.70;;;;;;;13.50;53.90;100781.50;4982405;28;99919;-86
2022/05/23 03:05:19;;;;;;;0.50;0.50;;;;;;;13.51;53.77;100782.28;5006618;28;96929;-85
2022/05/23 03:07:45;;;;;;;1.13;0.90;;;;;;;13.57;53.77;100769.16;4983287;28;96823;-85
2022/05/23 03:10:11;;;;;;;1.83;0.70;;;;;;;13.60;53.80;100770.16;4989985;28;99329;-85
2022/05/23 03:12:37;;;;;;;1.47;0.90;;;;;;;13.63;53.71;100775.41;5011147;28;98493;-85
2022/05/23 03:15:05;;;;;;;1.53;0.67;;;;;;;13.67;53.85;100770.38;5013298;28;97386;-85
2022/05/23 03:17:32;;;;;;;4.23;0.80;;;;;;;13.69;53.64;100776.16;5001590;28;97095;-86
2022/05/23 03:19:57;;;;;;;0.80;0.60;;;;;;;13.73;53.65;100781.41;4992415;28;100041;-85
2022/05/23 03:27:52;;;;;;;1.60;0.90;;;;;;;13.78;53.79;100780.63;4998827;28;97097;-86
2022/05/23 03:30:17;;;;;;;0.90;0.80;;;;;;;13.78;53.58;100775.84;4983285;28;99753;-85
2022/05/23 03:32:42;;;;;;;0.90;0.73;;;;;;;13.81;53.61;100783.13;5004655;28;97635;-86
2022/05/23 03:35:08;;;;;;;1.10;0.80;;;;;;;13.85;53.61;100771.78;4985093;28;96855;-85
2022/05/23 03:37:35;;;;;;;0.70;0.70;;;;;;;13.83;53.52;100761.22;4998509;28;96677;-85
2022/05/23 03:40:05;;;;;;;0.80;0.60;;;;;;;13.85;53.91;100766.25;4990854;28;100030;-86
2022/05/23 03:42:31;;;;;;;2.07;0.60;;;;;;;13.81;53.59;100766.53;4988689;28;99626;-86
2022/05/23 03:44:56;;;;;;;1.60;0.60;;;;;;;13.79;53.80;100776.59;4998569;28;97245;-86
2022/05/23 03:47:21;;;;;;;0.60;0.60;;;;;;;13.79;53.67;100763.53;4986976;28;96900;-86
2022/05/23 03:49:47;;;;;;;1.47;0.80;;;;;;;13.78;53.76;100764.78;4979128;28;99861;-86
2022/05/23 03:52:12;;;;;;;2.70;0.93;;;;;;;13.74;53.82;100772.59;4996913;28;99179;-86
2022/05/23 03:54:38;;;;;;;0.80;0.80;;;;;;;13.70;53.85;100746.47;5009726;28;96501;-85
2022/05/23 03:57:04;;;;;;;0.73;0.73;;;;;;;13.71;53.96;100757.03;4992892;28;96353;-85
2022/05/23 03:59:30;;;;;;;0.80;0.80;;;;;;;13.74;54.15;100735.91;4999556;28;97910;-87
2022/05/23 04:01:57;;;;;;;0.70;0.63;;;;;;;13.77;54.02;100732.88;4998780;28;98338;-86
2022/05/23 04:04:27;;;;;;;0.83;0.80;;;;;;;13.84;54.19;100729.56;4982749;28;96926;-86
2022/05/23 04:06:57;;;;;;;0.80;0.80;;;;;;;13.86;53.99;100737.34;4986824;28;96910;-87
2022/05/23 04:09:23;;;;;;;0.70;0.50;;;;;;;13.91;54.20;100729.00;4993423;28;96925;-86
2022/05/23 04:11:49;;;;;;;1.30;0.63;;;;;;;14.02;54.08;100719.88;4981470;28;98499;-85
2022/05/23 04:14:14;;;;;;;1.00;0.57;;;;;;;14.02;54.01;100717.13;4990938;28;96964;-86
2022/05/23 04:16:45;;;;;;;0.70;0.50;;;;;;;14.18;54.16;100722.50;4987067;28;96698;-86
2022/05/23 04:19:29;;;;;;;1.20;0.73;;;;;;;14.28;54.13;100718.13;4947098;28;104465;-85
2022/05/23 04:22:03;;;;;;;1.10;0.90;;;;;;;14.35;54.02;100711.31;4948799;28;100964;-86
2022/05/23 04:24:29;;;;;;;0.80;0.67;;;;;;;14.40;53.91;100696.69;4984623;28;96829;-86
2022/05/23 04:26:57;;;;;;;1.83;0.80;;;;;;;14.48;53.84;100691.34;4993052;28;97177;-85
2022/05/23 04:29:23;;;;;;;1.27;0.93;;;;;;;14.53;53.93;100694.06;4988577;28;97492;-86
2022/05/23 04:31:49;;;;;;;0.53;0.50;;;;;;;14.61;53.95;100697.00;5006110;28;102287;-85
2022/05/23 04:36:59;;;;;;;2.50;0.80;;;;;;;14.76;53.72;100678.72;4996311;28;97864;-86
2022/05/23 04:39:24;;;;;;;0.97;0.87;;;;;;;14.86;53.77;100671.53;4983357;28;99710;-86
2022/05/23 04:41:50;;;;;;;1.03;0.73;;;;;;;14.91;53.66;100656.88;4983135;28;96676;-87
2022/05/23 04:44:15;;;;;;;4.70;0.70;;;;;;;15.01;53.72;100660.78;5001965;28;96810;-86
2022/05/23 04:49:41;;;;;;;0.80;0.53;;;;;;;15.10;53.52;100662.44;5002871;28;96794;-85
2022/05/23 04:50:03;;;;;;;1.47;0.83;;;;;;;15.20;53.53;100654.50;5004190;28;97824;-85
2022/05/23 04:52:19;;;;;;;1.67;0.60;;;;;;;15.30;53.59;100658.41;5000058;28;102836;-86
2022/05/23 04:54:47;;;;;;;1.00;0.73;;;;;;;15.39;53.51;100650.47;4982365;28;96820;-85
2022/05/23 04:57:13;;;;;;;1.07;0.90;;;;;;;15.48;53.48;100647.34;5006780;28;96275;-87
2022/05/23 04:59:38;;;;;;;4.80;0.80;;;;;;;15.55;53.36;100641.16;5018311;28;96712;-87
2022/05/23 05:02:04;;;;;;;1.20;0.77;;;;;;;15.66;53.25;100641.00;5012423;28;98275;-86
2022/05/23 05:04:30;;;;;;;4.40;0.73;;;;;;;15.74;53.14;100641.91;5006924;28;96561;-86
2022/05/23 05:06:56;;;;;;;1.67;0.63;;;;;;;15.84;53.13;100631.13;5010412;28;96623;-85
2022/05/23 05:09:21;;;;;;;0.60;0.60;;;;;;;15.89;53.31;100613.66;4998252;28;104770;-86
2022/05/23 05:11:47;;;;;;;1.60;0.60;;;;;;;15.99;52.98;100622.34;5006840;28;98368;-87
2022/05/23 05:14:12;;;;;;;0.67;0.57;;;;;;;16.09;52.96;100618.63;5004674;28;97102;-85
2022/05/23 05:16:38;;;;;;;1.10;0.70;;;;;;;16.17;52.94;100611.16;5020633;28;96677;-88
2022/05/23 05:19:03;;;;;;;0.70;0.60;;;;;;;16.24;52.67;100613.28;5024541;28;98861;-86
2022/05/23 05:21:29;;;;;;;0.97;0.67;;;;;;;16.31;52.76;100609.13;5002969;28;98121;-85
2022/05/23 05:23:55;;;;;;;0.90;0.60;;;;;;;16.37;52.75;100599.41;5003544;28;97805;-85
2022/05/23 05:26:20;;;;;;;1.27;1.07;;;;;;;16.46;52.67;100598.25;5001837;28;96568;-85
2022/05/23 05:28:46;;;;;;;2.10;0.70;;;;;;;16.56;52.79;100582.66;5007626;28;96561;-86
2022/05/23 05:31:21;;;;;;;0.90;0.60;;;;;;;16.65;52.99;100590.56;5025969;28;97553;-86
2022/05/23 05:33:55;;;;;;;1.33;0.60;;;;;;;16.71;52.95;100573.78;5018061;28;96970;-85
2022/05/23 05:36:26;;;;;;;1.10;0.67;;;;;;;16.80;52.80;100584.44;4987872;28;97479;-86
2022/05/23 05:39:03;;;;;;;1.87;0.80;;;;;;;16.86;52.67;100579.53;4988767;28;101010;-86
2022/05/23 05:41:34;;;;;;;1.23;0.70;;;;;;;16.93;52.33;100579.63;5001330;28;100152;-86
2022/05/23 05:44:12;;;;;;;0.77;0.60;;;;;;;17.04;52.33;100573.06;4971072;27;97171;-47
2022/05/23 05:46:41;;;;;;;1.40;0.80;;;;;;;17.14;51.80;100576.91;4978254;28;97708;-47
2022/05/23 05:49:11;;;;;;;1.57;0.90;;;;;;;17.23;51.84;100566.03;4966574;28;97478;-48
2022/05/23 05:51:38;;;;;;;0.93;0.60;;;;;;;17.33;51.73;100569.13;4972825;28;99496;-48
2022/05/23 05:54:08;;;;;;;2.53;0.67;;;;;;;17.42;51.63;100567.91;4971482;28;97055;-47
2022/05/23 05:56:34;;;;;;;0.90;0.70;;;;;;;17.48;51.43;100558.13;4974481;28;97385;-47
2022/05/23 05:59:00;;;;;;;2.43;0.70;;;;;;;17.57;51.41;100551.38;4974903;28;102224;-47
2022/05/23 06:01:25;;;;;;;0.83;0.60;;;;;;;17.66;51.19;100546.09;4975490;28;97134;-47
2022/05/23 06:03:50;;;;;;;2.57;0.90;;;;;;;17.72;51.06;100546.69;4974482;28;97031;-47
2022/05/23 06:11:44;;;;;;;1.50;0.67;;;;;;;17.88;50.67;100523.25;4952301;28;97347;-47
2022/05/23 06:14:09;;;;;;;3.17;0.77;;;;;;;17.93;50.66;100525.13;4949805;28;109166;-47
2022/05/23 06:16:36;;;;;;;2.30;0.80;;;;;;;17.97;50.76;100530.38;4954676;28;96789;-47
2022/05/23 06:19:03;;;;;;;1.67;0.80;;;;;;;18.04;50.51;100532.47;4950645;28;98232;-48
2022/05/23 06:21:28;;;;;;;1.90;0.80;;;;;;;18.10;50.40;100540.66;4955201;28;97151;-47
2022/05/23 06:23:54;;;;;;;6.27;1.07;;;;;;;18.15;50.52;100531.41;4955295;28;97164;-47
2022/05/23 06:26:21;;;;;;;0.60;0.50;;;;;;;18.21;50.35;100523.63;4955007;28;97219;-47
2022/05/23 06:28:47;;;;;;;1.57;0.80;;;;;;;18.29;50.45;100525.16;4958533;28;97481;-47
2022/05/23 06:31:15;;;;;;;1.60;0.87;;;;;;;18.38;50.32;100521.13;4954010;28;97008;-47
2022/05/23 06:33:41;;;;;;;1.40;0.70;;;;;;;18.44;50.45;100528.06;4956302;28;97055;-47
2022/05/23 06:36:07;;;;;;;1.57;0.60;;;;;;;18.51;50.16;100523.81;4950138;28;97417;-47
2022/05/23 06:38:34;;;;;;;1.00;0.60;;;;;;;18.57;50.00;100522.38;4950982;28;96946;-47
2022/05/23 06:40:59;;;;;;;1.57;0.80;;;;;;;18.63;49.87;100525.00;4950248;28;100082;-47
2022/05/23 06:43:25;;;;;;;1.93;0.90;;;;;;;18.68;49.95;100515.72;4953713;28;110701;-48
2022/05/23 06:45:50;;;;;;;1.90;1.00;;;;;;;18.75;49.91;100517.03;4956668;28;97237;-47
2022/05/23 06:48:16;;;;;;;1.27;0.70;;;;;;;18.81;49.79;100517.59;4957192;28;97356;-47
2022/05/23 06:50:44;;;;;;;1.40;0.73;;;;;;;18.82;49.77;100522.66;4953977;28;97682;-47
2022/05/23 06:53:10;;;;;;;1.17;1.07;;;;;;;18.86;49.65;100519.47;4954796;28;96970;-47
2022/05/23 06:55:36;;;;;;;2.20;0.70;;;;;;;18.81;49.60;100518.34;4940758;28;96742;-47
2022/05/23 06:58:01;;;;;;;1.10;0.90;;;;;;;18.82;49.58;100511.50;4939009;28;97439;-47
2022/05/23 07:00:26;;;;;;;0.90;0.80;;;;;;;18.84;49.76;100511.69;4935773;28;97452;-47
2022/05/23 07:02:52;;;;;;;0.80;0.70;;;;;;;18.86;49.31;100514.66;4940660;28;110293;-47
2022/05/23 07:13:32;;;;;;;2.43;0.80;;;;;;;18.89;49.54;100512.81;4943434;28;97544;-47
2022/05/23 07:15:57;;;;;;;1.57;0.67;;;;;;;18.90;49.42;100514.28;4941465;28;110625;-47
2022/05/23 07:18:23;;;;;;;3.50;0.60;;;;;;;18.90;49.47;100508.72;4937879;28;97009;-47
2022/05/23 07:20:48;;;;;;;2.50;0.80;;;;;;;18.93;49.25;100513.19;4940737;28;101293;-47
2022/05/23 07:23:14;;;;;;;1.00;0.70;;;;;;;18.94;49.43;100517.47;4940499;28;97498;-47
2022/05/23 07:25:40;;;;;;;6.57;0.83;;;;;;;18.93;49.45;100513.94;4943885;28;96862;-47
2022/05/23 07:28:05;;;;;;;1.70;0.70;;;;;;;18.97;49.24;100519.91;4939467;28;104296;-47
2022/05/23 07:30:31;;;;;;;1.37;0.70;;;;;;;18.98;49.32;100515.78;4941820;28;97227;-47
2022/05/23 07:32:57;;;;;;;1.10;1.00;;;;;;;19.03;49.34;100511.34;4942916;28;97382;-47
2022/05/23 07:35:23;;;;;;;1.00;0.77;;;;;;;19.07;49.43;100508.94;4942649;28;97296;-47
2022/05/23 07:37:49;;;;;;;2.37;1.03;;;;;;;19.08;49.04;100496.50;4940459;28;96798;-47
2022/05/23 07:40:15;;;;;;;1.27;0.80;;;;;;;19.10;48.98;100489.06;4940107;28;98367;-47
2022/05/23 07:42:40;;;;;;;4.30;1.20;;;;;;;19.15;49.08;100490.19;4937428;28;97416;-47
2022/05/23 07:45:07;;;;;;;1.23;0.80;;;;;;;19.14;49.13;100477.53;4940358;28;96957;-47
2022/05/23 07:47:32;;;;;;;1.10;0.77;;;;;;;19.14;49.16;100472.69;4936654;28;97235;-47
2022/05/23 07:49:59;;;;;;;2.90;1.30;;;;;;;19.18;49.41;100473.06;4945250;28;97496;-47
2022/05/23 07:52:24;;;;;;;2.03;0.80;;;;;;;19.20;49.20;100469.72;4941619;28;97265;-47
2022/05/23 08:00:33;;;;;;;1.70;1.17;;;;;;;19.19;49.16;100457.84;4943832;28;96967;-47
2022/05/23 08:03:05;;;;;;;1.03;0.83;;;;;;;19.21;49.59;100455.25;4940962;28;97046;-47
2022/05/23 08:05:31;;;;;;;3.50;1.00;;;;;;;19.26;49.65;100459.88;4939026;28;97255;-47
2022/05/23 08:07:56;;;;;;;2.00;0.70;;;;;;;19.33;49.63;100459.13;4940101;28;101740;-47
2022/05/23 08:10:23;;;;;;;1.63;0.93;;;;;;;19.37;49.49;100450.44;4941837;28;97438;-47
2022/05/23 08:12:52;;;;;;;1.00;0.57;;;;;;;19.43;49.33;100454.53;4936483;28;97202;-47
2022/05/23 08:15:19;;;;;;;1.00;0.73;;;;;;;19.47;49.26;100451.34;4942547;28;96864;-47
2022/05/23 08:17:44;;;;;;;1.60;0.73;;;;;;;19.54;49.49;100447.81;4940715;28;97463;-48
2022/05/23 08:20:10;;;;;;;1.23;0.90;;;;;;;19.61;49.41;100449.13;4944732;28;97974;-47
2022/05/23 08:22:35;;;;;;;0.73;0.73;;;;;;;19.70;49.08;100443.69;4942608;28;97058;-47
2022/05/23 08:25:01;;;;;;;2.47;0.97;;;;;;;19.78;49.10;100440.88;4940802;28;96873;-47
2022/05/23 08:27:26;;;;;;;3.00;1.23;;;;;;;19.84;48.97;100441.44;4941938;28;128014;-48
2022/05/23 08:29:53;;;;;;;1.20;0.80;;;;;;;19.90;49.03;100439.19;4941479;28;97701;-47
2022/05/23 08:32:20;;;;;;;6.30;0.93;;;;;;;19.96;48.68;100439.75;4960179;28;97306;-47
2022/05/23 08:34:47;;;;;;;1.20;0.80;;;;;;;20.03;48.49;100433.38;4943880;28;97387;-46
2022/05/23 08:37:13;;;;;;;1.27;0.90;;;;;;;20.08;48.71;100435.97;4943289;28;97149;-47
2022/05/23 08:39:38;;;;;;;2.10;0.90;;;;;;;20.15;48.80;100428.88;4941345;28;98367;-47
2022/05/23 08:42:16;;;;;;;3.93;1.20;;;;;;;20.21;48.64;100429.41;4946350;28;97002;-48
2022/05/23 08:44:46;;;;;;;1.30;0.83;;;;;;;20.23;48.76;100426.06;4941714;28;96818;-47
2022/05/23 08:47:24;;;;;;;1.40;0.80;;;;;;;20.29;48.43;100424.53;4942947;28;97487;-48
2022/05/23 08:50:09;;;;;;;1.87;1.00;;;;;;;20.34;48.48;100429.19;4943582;28;97109;-48
2022/05/23 08:52:45;;;;;;;1.67;1.30;;;;;;;20.38;48.53;100431.59;4940859;28;97220;-48
2022/05/23 08:55:19;;;;;;;0.70;0.70;;;;;;;20.42;48.61;100423.56;4947660;28;97060;-46
2022/05/23 08:57:55;;;;;;;2.77;1.10;;;;;;;20.49;48.69;100429.09;4944873;28;101979;-46
2022/05/23 09:00:26;;;;;;;3.67;1.23;;;;;;;20.49;48.13;100426.31;4944123;28;101562;-47
2022/05/23 09:02:55;;;;;;;1.50;1.10;;;;;;;20.55;48.32;100429.63;4945611;28;97150;-47
2022/05/23 09:05:28;;;;;;;2.27;1.10;;;;;;;20.59;48.09;100427.22;4938956;28;97084;-47
2022/05/23 09:07:58;;;;;;;1.17;1.07;;;;;;;20.60;47.82;100433.50;4936860;28;100583;-47
2022/05/23 09:10:42;;;;;;;3.50;0.87;;;;;;;20.63;47.99;100426.78;4936060;28;100351;-47
2022/05/23 09:13:09;;;;;;;1.00;0.90;;;;;;;20.69;48.24;100430.13;4956869;28;96904;-48
2022/05/23 09:15:35;;;;;;;0.80;0.80;;;;;;;20.74;48.14;100418.72;4956033;28;97193;-48
2022/05/23 09:18:06;;;;;;;2.00;1.10;;;;;;;20.78;47.74;100413.47;4957922;28;97556;-47
2022/05/23 09:20:42;;;;;;;1.63;1.23;;;;;;;20.83;47.49;100409.72;4960739;28;100052;-47
2022/05/23 09:23:23;;;;;;;1.70;1.23;;;;;;;20.89;47.78;100401.84;4941814;28;97099;-47
2022/05/23 09:25:53;;;;;;;3.17;1.13;;;;;;;20.97;47.65;100398.25;4944594;28;97568;-46
2022/05/23 09:28:29;;;;;;;2.23;1.27;;;;;;;21.04;47.15;100398.19;4933551;28;100198;-47
2022/05/23 09:31:10;;;;;;;2.40;1.20;;;;;;;21.09;47.31;100391.66;4935816;28;98672;-49
2022/05/23 09:33:45;;;;;;;1.30;1.10;;;;;;;21.15;47.31;100388.59;4936075;28;97443;-47
2022/05/23 09:36:17;;;;;;;1.73;1.00;;;;;;;21.18;47.43;100393.06;4936772;28;97253;-49
2022/05/23 09:38:52;;;;;;;0.90;0.80;;;;;;;21.27;46.70;100381.97;4938601;28;97714;-46
2022/05/23 09:41:26;;;;;;;1.00;1.00;;;;;;;21.37;46.79;100373.66;4939317;28;107377;-47
2022/05/23 09:49:23;;;;;;;1.30;0.93;;;;;;;21.74;46.58;100363.38;4935881;28;97111;-48
2022/05/23 09:52:18;;;;;;;1.47;1.23;;;;;;;21.84;46.39;100358.63;4933971;28;98594;-47
2022/05/23 09:54:54;;;;;;;1.27;1.17;;;;;;;21.96;45.57;100351.19;4956835;28;97497;-48
2022/05/23 09:57:34;;;;;;;3.27;1.20;;;;;;;22.00;45.62;100348.72;4954389;28;97367;-48
2022/05/23 10:00:04;;;;;;;2.17;1.10;;;;;;;22.08;45.94;100347.28;4959443;28;97361;-48
2022/05/23 10:02:29;;;;;;;1.23;1.10;;;;;;;22.22;45.80;100342.06;4957093;28;99388;-47
2022/05/23 10:04:55;;;;;;;2.30;1.20;;;;;;;22.28;45.68;100337.69;4959221;28;99834;-47
2022/05/23 10:07:27;;;;;;;2.10;1.30;;;;;;;22.35;45.30;100330.50;4955806;28;96944;-47
2022/05/23 10:10:02;;;;;;;6.43;1.50;;;;;;;22.42;45.08;100320.47;4957197;28;98876;-47
2022/05/23 10:12:28;;;;;;;1.07;1.07;;;;;;;22.48;45.31;100316.09;4955166;28;97479;-49
2022/05/23 10:15:02;;;;;;;1.30;1.20;;;;;;;22.56;44.93;100319.53;4955344;28;96886;-47
2022/05/23 10:17:33;;;;;;;2.20;1.60;;;;;;;22.66;45.25;100314.72;4953084;28;112023;-49
2022/05/23 10:20:39;;;;;;;1.93;1.27;;;;;;;22.80;44.37;100312.25;4941720;28;98746;-50
2022/05/23 10:23:13;;;;;;;2.50;1.67;;;;;;;22.91;44.69;100306.09;4938487;28;101487;-48
2022/05/23 10:25:47;;;;;;;1.27;1.17;;;;;;;23.01;43.93;100304.78;4939499;28;96832;-48
2022/05/23 10:28:20;;;;;;;2.00;1.33;;;;;;;23.04;44.25;100297.25;4940069;28;97057;-48
2022/05/23 10:31:00;;;;;;;2.13;1.30;;;;;;;23.11;44.19;100293.56;4941562;28;97503;-48
2022/05/23 10:33:28;;;;;;;1.47;1.30;;;;;;;23.18;44.37;100295.50;4940978;28;97238;-48
2022/05/23 10:36:01;;;;;;;1.37;1.20;;;;;;;23.25;44.16;100289.00;4940059;28;97188;-48
2022/05/23 10:44:24;;;;;;;1.60;1.10;;;;;;;23.50;42.16;100264.19;4939726;28;101281;-48
2022/05/23 10:47:10;;;;;;;3.90;1.20;;;;;;;23.53;43.06;100277.06;4944785;28;97570;-47
2022/05/23 10:49:49;;;;;;;3.33;1.27;;;;;;;23.60;43.16;100270.56;4943906;28;96921;-47
2022/05/23 10:52:39;;;;;;;4.67;1.27;;;;;;;23.70;42.22;100264.91;4946306;28;96901;-47
2022/05/23 10:55:33;;;;;;;2.27;1.50;;;;;;;23.78;42.72;100254.25;4942064;28;100031;-48
2022/05/23 10:58:30;;;;;;;1.00;0.90;;;;;;;23.87;42.42;100261.19;4940904;28;97086;-47
2022/05/23 11:01:26;;;;;;;1.53;1.20;;;;;;;23.90;42.20;100249.50;4943011;28;97012;-47
2022/05/23 11:04:16;;;;;;;1.20;1.10;;;;;;;23.89;42.03;100250.84;4939612;28;103513;-48
2022/05/23 11:07:10;;;;;;;2.20;1.20;;;;;;;23.90;42.16;100243.88;4945224;28;100013;-47
2022/05/23 11:09:54;;;;;;;1.13;1.00;;;;;;;23.88;41.98;100234.56;4949406;28;97148;-47
2022/05/23 11:12:46;;;;;;;1.23;1.10;;;;;;;23.92;42.22;100235.56;4941332;28;97276;-48
2022/05/23 11:15:33;;;;;;;4.83;1.20;;;;;;;23.98;42.13;100230.41;4947528;28;101896;-47
2022/05/23 11:18:08;;;;;;;4.70;1.40;;;;;;;24.17;42.20;100224.72;4942513;28;100278;-47
2022/05/23 11:20:38;;;;;;;1.93;1.37;;;;;;;24.31;42.68;100206.00;4940238;28;102473;-47
2022/05/23 11:23:31;;;;;;;1.47;1.10;;;;;;;24.50;41.44;100208.75;4936664;28;97218;-48
2022/05/23 11:26:03;;;;;;;1.33;1.07;;;;;;;24.67;41.65;100213.38;4941184;28;101963;-48
2022/05/23 11:34:21;;;;;;;2.53;1.00;;;;;;;25.40;39.84;100187.19;4938568;28;97103;-47
2022/05/23 11:37:00;;;;;;;2.47;1.20;;;;;;;25.69;40.90;100184.81;4943867;28;97594;-48
2022/05/23 11:39:44;;;;;;;1.80;1.03;;;;;;;25.86;39.77;100198.56;4942664;28;97444;-48
2022/05/23 11:42:21;;;;;;;1.57;1.43;;;;;;;25.88;39.20;100190.97;4961042;28;97152;-48
2022/05/23 11:44:49;;;;;;;3.63;1.20;;;;;;;25.83;39.91;100188.50;4959653;28;97338;-48
2022/05/23 11:47:25;;;;;;;3.23;1.23;;;;;;;25.78;38.79;100181.91;4961849;28;96821;-47
2022/05/23 11:49:59;;;;;;;1.53;1.33;;;;;;;25.94;39.14;100168.81;4957162;28;100388;-48
2022/05/23 11:52:41;;;;;;;1.37;1.27;;;;;;;26.22;38.81;100172.63;4959549;28;97843;-48
2022/05/23 11:55:09;;;;;;;2.60;1.20;;;;;;;26.46;39.30;100168.41;4961287;28;97299;-48
2022/05/23 11:57:42;;;;;;;2.90;1.20;;;;;;;26.68;37.76;100166.91;4961116;28;97311;-48
2022/05/23 12:00:08;;;;;;;1.77;1.20;;;;;;;26.94;39.04;100158.50;4965316;28;96874;-48
2022/05/23 12:02:38;;;;;;;1.73;1.10;;;;;;;27.33;38.34;100156.47;4962786;28;96888;-49
2022/05/23 12:05:09;;;;;;;1.50;1.10;;;;;;;27.58;36.96;100150.81;4964465;28;97606;-48
2022/05/23 12:07:34;;;;;;;2.00;1.10;;;;;;;27.75;37.71;100150.31;4962306;28;96587;-48
2022/05/23 12:10:21;;;;;;;2.20;1.30;;;;;;;27.86;36.70;100141.03;4963095;28;108705;-49
2022/05/23 12:12:57;;;;;;;1.37;1.10;;;;;;;27.97;36.96;100136.63;4944737;28;96889;-48
2022/05/23 12:15:43;;;;;;;1.73;1.30;;;;;;;28.14;36.09;100131.22;4942116;28;96948;-48
2022/05/23 12:18:29;;;;;;;2.40;1.20;;;;;;;28.28;36.14;100124.81;4946214;28;100584;-48
2022/05/23 12:20:58;;;;;;;1.10;0.97;;;;;;;28.44;36.81;100129.19;4936863;28;101770;-47
2022/05/23 12:23:32;;;;;;;4.90;1.27;;;;;;;28.54;35.43;100123.31;4936110;28;96974;-48
2022/05/23 12:26:26;;;;;;;1.43;1.00;;;;;;;28.51;34.78;100122.47;4934143;28;97053;-48
2022/05/23 12:28:58;;;;;;;1.23;1.10;;;;;;;28.59;36.58;100127.84;4940557;28;102146;-49
2022/05/23 12:31:29;;;;;;;1.53;1.00;;;;;;;28.58;36.04;100106.56;4938304;28;97390;-48